Terminal Aerodrome Forecast
Issued by NWS Shreveport, LA

Home | Current Version | Previous Version | Text Only | Print | Product List | Glossary On
Versions: 1 2 3 4 5 6 7 8 9 10 11 12 13 14 15 16 17
000
FTUS44 KSHV 252355
TAFSHV
TAF
KSHV 252355Z 2600/2624 05007KT P6SM VCTS SCT060CB SCT250
      TEMPO 2600/2602 -TSRA BKN050CB BKN150
     FM260300 VRB04KT P6SM FEW050 SCT150 BKN250
     FM261300 VRB04KT P6SM BKN050
     FM261700 08006KT P6SM BKN050 BKN250=

USA.gov is the U.S. government's official web portal to all federal, state and local government web resources and services.